This is the latest recevied weather packets stored in our database for station/object VK4ZPK-13. If no packets are shown the sender has not sent any weather packets the latest 10 day(s).
| Time | Temp. | Humidity | Pressure | Rain* | Wind** | Luminosity | Snow |
|---|---|---|---|---|---|---|---|
| 1788420680 | 21.67° C | 81% | 1016.6 hPa | 0 mm | - | - | - |
| 1788418880 | 22.22° C | 79% | 1016.4 hPa | 0 mm | - | - | - |
| 1788417080 | 22.78° C | 77% | 1016.4 hPa | 0 mm | - | - | - |
| 1788415280 | 23.33° C | 76% | 1016.3 hPa | 0 mm | - | - | - |
| 1788413480 | 23.89° C | 75% | 1016.1 hPa | 0 mm | - | - | - |
| 1788411680 | 23.89° C | 74% | 1016.2 hPa | 0 mm | - | - | - |
| 1788409880 | 24.44° C | 73% | 1016.6 hPa | 0 mm | - | - | - |
| 1788408080 | 24.44° C | 73% | 1017.1 hPa | 0 mm | - | - | - |
| 1788406280 | 24.44° C | 73% | 1017.5 hPa | 0 mm | - | - | - |
| 1788404480 | 25° C | 73% | 1017.9 hPa | 0 mm | - | - | - |
| 1788402680 | 25° C | 72% | 1018.2 hPa | 0 mm | - | - | - |
| 1788400880 | 25.56° C | 71% | 1018.7 hPa | 0 mm | - | - | - |
| 1788377480 | 15° C | 92% | 1018.2 hPa | 0 mm | - | - | - |
| 1788375680 | 15.56° C | 92% | 1018.1 hPa | 0 mm | - | - | - |
| 1788373880 | 15.56° C | 92% | 1018 hPa | 0 mm | - | - | - |
| 1788370280 | 15° C | 90% | 1017.8 hPa | 0 mm | - | - | - |
| 1788368480 | 15° C | 90% | 1017.9 hPa | 0 mm | - | - | - |
| 1788363080 | 16.11° C | 88% | 1018.4 hPa | 0 mm | - | - | - |
| 1788361280 | 16.67° C | 87% | 1018.6 hPa | 0 mm | - | - | - |
| 1788359480 | 17.22° C | 86% | 1018.9 hPa | 0 mm | - | - | - |
| 1788357679 | 17.78° C | 86% | 1019 hPa | 0 mm | - | - | - |
| 1788355880 | 18.33° C | 85% | 1019 hPa | 0 mm | - | - | - |
| 1788354079 | 18.89° C | 85% | 1019.1 hPa | 0 mm | - | - | - |
| 1788352280 | 18.89° C | 83% | 1019.1 hPa | 0 mm | - | - | - |
| 1788348680 | 19.44° C | 81% | 1019.1 hPa | 0 mm | - | - | - |
* Rain latest hour (hover to see other rain measurements)
** Current wind speed in m/s (hover to see current wind gust speed)